Time;durP1;ratioP1;P1;durP2;ratioP2;P2;SDS_P1;SDS_P2;PMS_P1;PMS_P2;Temp;Humidity;BMP_temperature;BMP_pressure;BME280_temperature;BME280_humidity;BME280_pressure;Samples;Min_cycle;Max_cycle;Signal;HPM_P1;HPM_P2
2023/12/05 00:01:53;;;;;;;1999.90;999.90;;;;;;;;;;5107441;27;20138;-88
2023/12/05 00:04:19;;;;;;;1999.90;999.90;;;;;;;;;;5105269;27;20047;-88
2023/12/05 00:06:47;;;;;;;1999.90;999.90;;;;;;;;;;5107784;27;20048;-88
2023/12/05 00:09:14;;;;;;;1999.90;999.90;;;;;;;;;;5105275;27;20048;-89
2023/12/05 00:11:41;;;;;;;1999.90;999.90;;;;;;;;;;5107770;27;20044;-90
2023/12/05 00:14:07;;;;;;;1999.90;999.90;;;;;;;;;;5106467;27;20201;-89
2023/12/05 00:16:34;;;;;;;1999.90;999.90;;;;;;;;;;5105595;27;20048;-88
2023/12/05 00:19:00;;;;;;;1999.90;999.90;;;;;;;;;;5106338;27;20054;-91
2023/12/05 00:21:27;;;;;;;1999.90;999.90;;;;;;;;;;5100229;27;20048;-87
2023/12/05 00:23:55;;;;;;;1999.90;999.90;;;;;;;;;;5106618;27;20047;-88
2023/12/05 00:26:21;;;;;;;1999.90;999.90;;;;;;;;;;5108748;27;20457;-87
2023/12/05 00:28:48;;;;;;;1999.90;999.90;;;;;;;;;;5107315;27;20047;-87
2023/12/05 00:31:15;;;;;;;1999.90;999.90;;;;;;;;;;5108046;27;20064;-87
2023/12/05 00:33:41;;;;;;;1999.90;999.90;;;;;;;;;;5104644;27;20134;-88
2023/12/05 00:36:09;;;;;;;1999.90;999.90;;;;;;;;;;5109817;27;20496;-87
2023/12/05 00:38:35;;;;;;;1999.90;999.90;;;;;;;;;;5102809;27;20582;-87
2023/12/05 00:41:03;;;;;;;1999.90;999.90;;;;;;;;;;5103544;27;20054;-87
2023/12/05 00:43:30;;;;;;;1999.90;999.90;;;;;;;;;;5106336;27;20052;-87
2023/12/05 00:45:57;;;;;;;1999.90;999.90;;;;;;;;;;5108665;27;20126;-88
2023/12/05 00:48:24;;;;;;;1999.90;999.90;;;;;;;;;;5112295;27;20074;-88
2023/12/05 00:50:50;;;;;;;1999.90;999.90;;;;;;;;;;5108800;27;20054;-87
2023/12/05 00:53:17;;;;;;;1999.90;999.90;;;;;;;;;;5105854;27;20054;-87
2023/12/05 00:55:43;;;;;;;1999.90;999.90;;;;;;;;;;5107018;27;20088;-87
2023/12/05 00:58:11;;;;;;;1999.90;999.90;;;;;;;;;;5099698;27;20406;-86
2023/12/05 01:00:37;;;;;;;1999.90;999.90;;;;;;;;;;5105186;27;20052;-86
2023/12/05 01:03:04;;;;;;;1999.90;999.90;;;;;;;;;;5100936;27;20046;-87
2023/12/05 01:05:32;;;;;;;1999.90;999.90;;;;;;;;;;5103610;27;20491;-87
2023/12/05 01:07:59;;;;;;;1999.90;999.90;;;;;;;;;;5107152;27;20047;-87
2023/12/05 01:10:25;;;;;;;1999.90;999.90;;;;;;;;;;5101550;27;20067;-86
2023/12/05 01:12:52;;;;;;;1999.90;999.90;;;;;;;;;;5106872;27;20044;-87
2023/12/05 01:15:20;;;;;;;1999.90;999.90;;;;;;;;;;5100558;27;20043;-87
2023/12/05 01:17:46;;;;;;;1999.90;999.90;;;;;;;;;;5104225;27;20040;-87
2023/12/05 01:20:11;;;;;;;1999.90;999.90;;;;;;;;;;5104783;27;20043;-88
2023/12/05 01:22:38;;;;;;;1999.90;999.90;;;;;;;;;;5104830;27;20048;-87
2023/12/05 01:25:07;;;;;;;1999.90;999.90;;;;;;;;;;5104136;27;20493;-87
2023/12/05 01:27:33;;;;;;;1999.90;999.90;;;;;;;;;;5110032;27;20067;-87
2023/12/05 01:30:00;;;;;;;1999.90;999.90;;;;;;;;;;5103363;27;20431;-87
2023/12/05 01:32:28;;;;;;;1999.90;999.90;;;;;;;;;;5104699;27;20039;-87
2023/12/05 01:34:56;;;;;;;1999.90;999.90;;;;;;;;;;5106460;27;20047;-87
2023/12/05 01:37:23;;;;;;;1999.90;999.90;;;;;;;;;;5106079;27;20051;-87
2023/12/05 01:39:49;;;;;;;1999.90;999.90;;;;;;;;;;5100233;27;20058;-87
2023/12/05 01:42:16;;;;;;;1999.90;999.90;;;;;;;;;;5103050;27;20055;-87
2023/12/05 01:44:42;;;;;;;1999.90;999.90;;;;;;;;;;5104839;27;20377;-87
2023/12/05 01:47:09;;;;;;;1999.90;999.90;;;;;;;;;;5107821;27;20051;-87
2023/12/05 01:49:37;;;;;;;1999.90;999.90;;;;;;;;;;5105824;27;20064;-86
2023/12/05 01:52:05;;;;;;;1999.90;999.90;;;;;;;;;;5098548;27;20055;-87
2023/12/05 01:54:33;;;;;;;1999.90;999.90;;;;;;;;;;5105361;27;20051;-87
2023/12/05 01:57:00;;;;;;;1999.90;999.90;;;;;;;;;;5102300;27;20047;-87
2023/12/05 01:59:27;;;;;;;1999.90;999.90;;;;;;;;;;5101612;27;20044;-86
2023/12/05 02:01:54;;;;;;;1999.90;999.90;;;;;;;;;;5101864;27;20388;-86
2023/12/05 02:04:20;;;;;;;1999.90;999.90;;;;;;;;;;5100907;28;20048;-87
2023/12/05 02:06:49;;;;;;;1999.90;999.90;;;;;;;;;;5107410;27;20048;-86
2023/12/05 02:09:15;;;;;;;1999.90;999.90;;;;;;;;;;5101322;27;20488;-88
2023/12/05 02:11:42;;;;;;;1999.90;999.90;;;;;;;;;;5102979;27;20147;-87
2023/12/05 02:14:09;;;;;;;1999.90;999.90;;;;;;;;;;5104584;27;20505;-86
2023/12/05 02:16:38;;;;;;;1999.90;999.90;;;;;;;;;;5100964;27;20047;-86
2023/12/05 02:19:14;;;;;;;1999.90;999.90;;;;;;;;;;5108292;27;20117;-88
2023/12/05 02:21:40;;;;;;;;;;;;;;;;;;5100948;27;20040;-87
2023/12/05 02:24:26;;;;;;;1999.90;999.90;;;;;;;;;;5101231;27;19923;-85
2023/12/05 02:26:56;;;;;;;1999.90;999.90;;;;;;;;;;5102232;28;20480;-86
2023/12/05 02:29:24;;;;;;;1999.90;999.90;;;;;;;;;;5103460;27;20077;-90
2023/12/05 02:31:51;;;;;;;1999.90;999.90;;;;;;;;;;5103395;27;20047;-87
2023/12/05 02:34:18;;;;;;;1999.90;999.90;;;;;;;;;;5103045;28;20142;-88
2023/12/05 02:36:54;;;;;;;1999.90;999.90;;;;;;;;;;5102484;27;20039;-88
2023/12/05 02:39:25;;;;;;;1999.90;999.90;;;;;;;;;;5102524;27;20144;-87
2023/12/05 02:41:54;;;;;;;1999.90;999.90;;;;;;;;;;5100706;28;20146;-87
2023/12/05 02:44:25;;;;;;;1999.90;999.90;;;;;;;;;;5098041;28;20036;-87
2023/12/05 02:46:52;;;;;;;1999.90;999.90;;;;;;;;;;5097975;28;20048;-87
2023/12/05 02:49:18;;;;;;;1999.90;999.90;;;;;;;;;;5105181;27;20052;-88
2023/12/05 02:51:46;;;;;;;1999.90;999.90;;;;;;;;;;5101532;28;20379;-88
2023/12/05 02:54:12;;;;;;;1999.90;999.90;;;;;;;;;;5101830;28;20570;-87
2023/12/05 02:56:39;;;;;;;1999.90;999.90;;;;;;;;;;5108480;28;20048;-87
2023/12/05 02:59:05;;;;;;;1999.90;999.90;;;;;;;;;;5102362;27;20511;-88
2023/12/05 03:01:38;;;;;;;1999.90;999.90;;;;;;;;;;5098232;28;20051;-88
2023/12/05 03:04:05;;;;;;;1999.90;999.90;;;;;;;;;;5098961;28;20044;-87
2023/12/05 03:06:31;;;;;;;1999.90;999.90;;;;;;;;;;5101602;28;20052;-87
2023/12/05 03:09:01;;;;;;;1999.90;999.90;;;;;;;;;;5102317;28;20052;-87
2023/12/05 03:11:33;;;;;;;1999.90;999.90;;;;;;;;;;5101987;28;20090;-88
2023/12/05 03:13:59;;;;;;;1999.90;999.90;;;;;;;;;;5101017;28;20078;-88
2023/12/05 03:16:26;;;;;;;1999.90;999.90;;;;;;;;;;5103313;28;20058;-88
2023/12/05 03:18:54;;;;;;;1999.90;999.90;;;;;;;;;;5105591;28;20052;-88
2023/12/05 03:21:20;;;;;;;1999.90;999.90;;;;;;;;;;5099472;28;20044;-88
2023/12/05 03:23:47;;;;;;;1999.90;999.90;;;;;;;;;;5098060;28;20056;-87
2023/12/05 03:26:20;;;;;;;1999.90;999.90;;;;;;;;;;5109415;28;20493;-88
2023/12/05 03:28:46;;;;;;;1999.90;999.90;;;;;;;;;;5112652;27;20051;-87
2023/12/05 03:31:13;;;;;;;1999.90;999.90;;;;;;;;;;5113653;28;20047;-88
2023/12/05 03:33:40;;;;;;;1999.90;999.90;;;;;;;;;;5115324;28;20113;-87
2023/12/05 03:36:09;;;;;;;1999.90;999.90;;;;;;;;;;5115698;28;20067;-87
2023/12/05 03:38:37;;;;;;;1999.90;999.90;;;;;;;;;;5116682;28;20035;-89
2023/12/05 03:41:04;;;;;;;1999.90;999.90;;;;;;;;;;5108930;28;20070;-87
2023/12/05 03:43:31;;;;;;;1999.90;999.90;;;;;;;;;;5107825;28;20134;-86
2023/12/05 03:45:57;;;;;;;1999.90;999.90;;;;;;;;;;5102277;28;20056;-86
2023/12/05 03:48:24;;;;;;;1999.90;999.90;;;;;;;;;;5104070;28;20051;-87
2023/12/05 03:50:50;;;;;;;1999.90;999.90;;;;;;;;;;5101504;28;20071;-87
2023/12/05 03:53:18;;;;;;;1999.90;999.90;;;;;;;;;;5103425;28;20050;-86
2023/12/05 03:55:45;;;;;;;1999.90;999.90;;;;;;;;;;5100792;28;20403;-87
2023/12/05 03:58:11;;;;;;;1999.90;999.90;;;;;;;;;;5099409;28;20055;-87
2023/12/05 04:00:37;;;;;;;1999.90;999.90;;;;;;;;;;5105675;28;20067;-87
2023/12/05 04:03:04;;;;;;;1999.90;999.90;;;;;;;;;;5099312;28;20506;-87
2023/12/05 04:05:30;;;;;;;1999.90;999.90;;;;;;;;;;5102962;28;20056;-89
2023/12/05 04:07:57;;;;;;;1999.90;999.90;;;;;;;;;;5103739;27;20048;-87
2023/12/05 04:10:25;;;;;;;1999.90;999.90;;;;;;;;;;5101900;28;20412;-87
2023/12/05 04:12:51;;;;;;;1999.90;999.90;;;;;;;;;;5110549;27;20059;-88
2023/12/05 04:15:18;;;;;;;1999.90;999.90;;;;;;;;;;5104972;27;20058;-87
2023/12/05 04:17:44;;;;;;;1999.90;999.90;;;;;;;;;;5104083;27;20048;-87
2023/12/05 04:20:12;;;;;;;1999.90;999.90;;;;;;;;;;5110682;27;20184;-87
2023/12/05 04:22:39;;;;;;;1999.90;999.90;;;;;;;;;;5098640;27;20048;-86
2023/12/05 04:25:06;;;;;;;1999.90;999.90;;;;;;;;;;5098267;27;20058;-90
2023/12/05 04:27:34;;;;;;;1999.90;999.90;;;;;;;;;;5105246;27;20125;-87
2023/12/05 04:30:01;;;;;;;1999.90;999.90;;;;;;;;;;5104259;27;20052;-88
2023/12/05 04:32:27;;;;;;;1999.90;999.90;;;;;;;;;;5101331;27;20040;-89
2023/12/05 04:34:53;;;;;;;1999.90;999.90;;;;;;;;;;5104761;27;20059;-87
2023/12/05 04:37:20;;;;;;;1999.90;999.90;;;;;;;;;;5106350;27;20035;-86
2023/12/05 04:39:46;;;;;;;1999.90;999.90;;;;;;;;;;5105724;27;20083;-86
2023/12/05 04:42:13;;;;;;;1999.90;999.90;;;;;;;;;;5104925;27;20052;-87
2023/12/05 04:44:41;;;;;;;1999.90;999.90;;;;;;;;;;5109828;27;20044;-87
2023/12/05 04:47:08;;;;;;;1999.90;999.90;;;;;;;;;;5104648;27;20056;-86
2023/12/05 04:49:34;;;;;;;1999.90;999.90;;;;;;;;;;5106077;27;20124;-87
2023/12/05 04:52:01;;;;;;;1999.90;999.90;;;;;;;;;;5104438;27;20048;-87
2023/12/05 04:54:27;;;;;;;1999.90;999.90;;;;;;;;;;5105344;27;20049;-86
2023/12/05 04:56:54;;;;;;;1999.90;999.90;;;;;;;;;;5102359;27;20177;-86
2023/12/05 04:59:20;;;;;;;1999.90;999.90;;;;;;;;;;5106483;27;20063;-87
2023/12/05 05:01:49;;;;;;;1999.90;999.90;;;;;;;;;;5107347;27;20476;-86
2023/12/05 05:04:17;;;;;;;1999.90;999.90;;;;;;;;;;5103274;27;20097;-87
2023/12/05 05:06:43;;;;;;;1999.90;999.90;;;;;;;;;;5107570;27;20055;-87
2023/12/05 05:09:10;;;;;;;1999.90;999.90;;;;;;;;;;5101781;27;20052;-87
2023/12/05 05:11:36;;;;;;;1999.90;999.90;;;;;;;;;;5106671;27;20048;-87
2023/12/05 05:14:03;;;;;;;1999.90;999.90;;;;;;;;;;5093439;28;20508;-88
2023/12/05 05:16:29;;;;;;;1999.90;999.90;;;;;;;;;;5104749;27;20060;-87
2023/12/05 05:18:59;;;;;;;1999.90;999.90;;;;;;;;;;5101710;27;20050;-87
2023/12/05 05:21:25;;;;;;;1999.90;999.90;;;;;;;;;;5103931;27;20044;-87
2023/12/05 05:23:52;;;;;;;1999.90;999.90;;;;;;;;;;5104512;27;20040;-87
2023/12/05 05:26:18;;;;;;;1999.90;999.90;;;;;;;;;;5100106;27;20056;-87
2023/12/05 05:28:45;;;;;;;1999.90;999.90;;;;;;;;;;5105644;27;20044;-86
2023/12/05 05:31:11;;;;;;;1999.90;999.90;;;;;;;;;;5100967;27;20055;-87
2023/12/05 05:33:38;;;;;;;1999.90;999.90;;;;;;;;;;5100865;27;20088;-88
2023/12/05 05:36:07;;;;;;;1999.90;999.90;;;;;;;;;;5104688;27;20048;-86
2023/12/05 05:38:34;;;;;;;1999.90;999.90;;;;;;;;;;5104011;28;20057;-86
2023/12/05 05:41:04;;;;;;;1999.90;999.90;;;;;;;;;;5108041;27;20052;-86
2023/12/05 05:43:31;;;;;;;1999.90;999.90;;;;;;;;;;5113722;27;20044;-86
2023/12/05 05:45:58;;;;;;;1999.90;999.90;;;;;;;;;;5121971;27;20059;-86
2023/12/05 05:48:24;;;;;;;1999.90;999.90;;;;;;;;;;5119895;27;20047;-84
2023/12/05 05:50:51;;;;;;;1999.90;999.90;;;;;;;;;;5117059;27;20048;-87
2023/12/05 05:53:19;;;;;;;1999.90;999.90;;;;;;;;;;5114474;27;20150;-87
2023/12/05 05:55:45;;;;;;;1999.90;999.90;;;;;;;;;;5126970;27;20044;-87
2023/12/05 05:58:12;;;;;;;1999.90;999.90;;;;;;;;;;5101831;27;20054;-86
2023/12/05 06:00:39;;;;;;;1999.90;999.90;;;;;;;;;;5124876;27;20055;-87
2023/12/05 06:03:06;;;;;;;1999.90;999.90;;;;;;;;;;5109878;28;20056;-87
2023/12/05 06:05:32;;;;;;;1999.90;999.90;;;;;;;;;;5109400;27;20421;-86
2023/12/05 06:07:59;;;;;;;1999.90;999.90;;;;;;;;;;5112617;27;20482;-86
2023/12/05 06:10:30;;;;;;;1999.90;999.90;;;;;;;;;;5111329;27;20448;-88
2023/12/05 06:12:57;;;;;;;1999.90;999.90;;;;;;;;;;5104277;28;20073;-88
2023/12/05 06:15:23;;;;;;;1999.90;999.90;;;;;;;;;;5108934;27;20044;-88
2023/12/05 06:17:50;;;;;;;1999.90;999.90;;;;;;;;;;5109204;27;20053;-88
2023/12/05 06:20:17;;;;;;;1999.90;999.90;;;;;;;;;;5100694;27;20059;-88
2023/12/05 06:22:43;;;;;;;1999.90;999.90;;;;;;;;;;5108019;27;20617;-89
2023/12/05 06:25:10;;;;;;;1999.90;999.90;;;;;;;;;;5104332;27;20050;-88
2023/12/05 06:27:38;;;;;;;1999.90;999.90;;;;;;;;;;5101910;27;20135;-88
2023/12/05 06:30:05;;;;;;;1999.90;999.90;;;;;;;;;;5108620;27;20053;-88
2023/12/05 06:32:32;;;;;;;1999.90;999.90;;;;;;;;;;5104953;27;20401;-89
2023/12/05 06:34:59;;;;;;;1999.90;999.90;;;;;;;;;;5100374;28;20507;-88
2023/12/05 06:37:25;;;;;;;1999.90;999.90;;;;;;;;;;5101636;27;20044;-87
2023/12/05 06:39:52;;;;;;;1999.90;999.90;;;;;;;;;;5107355;27;20138;-88
2023/12/05 06:42:19;;;;;;;1999.90;999.90;;;;;;;;;;5108970;28;20040;-88
2023/12/05 06:44:47;;;;;;;1999.90;999.90;;;;;;;;;;5104811;27;20040;-88
2023/12/05 06:47:13;;;;;;;1999.90;999.90;;;;;;;;;;5104973;27;20052;-89
2023/12/05 06:49:42;;;;;;;1999.90;999.90;;;;;;;;;;5103659;27;20043;-87
2023/12/05 06:52:11;;;;;;;1999.90;999.90;;;;;;;;;;5103847;28;20063;-88
2023/12/05 06:54:37;;;;;;;1999.90;999.90;;;;;;;;;;5097642;28;20044;-87
2023/12/05 06:57:04;;;;;;;1999.90;999.90;;;;;;;;;;5105946;28;20123;-89
2023/12/05 06:59:31;;;;;;;1999.90;999.90;;;;;;;;;;5107000;28;20054;-88
2023/12/05 07:01:59;;;;;;;1999.90;999.90;;;;;;;;;;5102611;28;20138;-90
2023/12/05 07:04:25;;;;;;;1999.90;999.90;;;;;;;;;;5104296;28;20048;-88
2023/12/05 07:06:52;;;;;;;1999.90;999.90;;;;;;;;;;5105797;28;20436;-88
2023/12/05 07:09:20;;;;;;;1999.90;999.90;;;;;;;;;;5105426;28;20222;-88
2023/12/05 07:11:46;;;;;;;1999.90;999.90;;;;;;;;;;5100062;28;20040;-87
2023/12/05 07:14:13;;;;;;;1999.90;999.90;;;;;;;;;;5104925;28;20492;-89
2023/12/05 07:16:40;;;;;;;1999.90;999.90;;;;;;;;;;5102752;28;20044;-87
2023/12/05 07:19:08;;;;;;;1999.90;999.90;;;;;;;;;;5101970;28;20048;-88
2023/12/05 07:21:34;;;;;;;1999.90;999.90;;;;;;;;;;5100009;28;20127;-87
2023/12/05 07:24:01;;;;;;;1999.90;999.90;;;;;;;;;;5104604;28;20492;-89
2023/12/05 07:26:28;;;;;;;1999.90;999.90;;;;;;;;;;5102836;28;20046;-89
2023/12/05 07:28:54;;;;;;;1999.90;999.90;;;;;;;;;;5101448;28;20058;-90
2023/12/05 07:31:21;;;;;;;1999.90;999.90;;;;;;;;;;5108405;28;20058;-90
2023/12/05 07:33:48;;;;;;;1999.90;999.90;;;;;;;;;;5104072;28;20067;-90
2023/12/05 07:36:16;;;;;;;1999.90;999.90;;;;;;;;;;5102844;27;20043;-92
2023/12/05 07:38:43;;;;;;;1999.90;999.90;;;;;;;;;;5109520;28;20063;-90
2023/12/05 07:41:17;;;;;;;1999.90;999.90;;;;;;;;;;5097351;28;20055;-90
2023/12/05 07:43:44;;;;;;;1999.90;999.90;;;;;;;;;;5105913;27;20039;-91
2023/12/05 07:46:11;;;;;;;1999.90;999.90;;;;;;;;;;5108841;27;20053;-92
2023/12/05 07:48:37;;;;;;;1999.90;999.90;;;;;;;;;;5106834;27;20051;-93
2023/12/05 07:51:05;;;;;;;1999.90;999.90;;;;;;;;;;5106149;27;20499;-92
2023/12/05 07:53:33;;;;;;;1999.90;999.90;;;;;;;;;;5105791;27;20044;-94
2023/12/05 07:56:00;;;;;;;1999.90;999.90;;;;;;;;;;5109407;27;20056;-93
2023/12/05 07:58:27;;;;;;;1999.90;999.90;;;;;;;;;;5111189;27;20143;-91
2023/12/05 08:03:34;;;;;;;1999.90;999.90;;;;;;;;;;5115380;27;20055;-93
2023/12/05 08:06:02;;;;;;;1999.90;999.90;;;;;;;;;;5103333;27;20056;-93
2023/12/05 08:08:30;;;;;;;1999.90;999.90;;;;;;;;;;5110370;27;20044;-94
2023/12/05 08:10:59;;;;;;;1999.90;999.90;;;;;;;;;;5109453;27;20147;-94
2023/12/05 08:13:28;;;;;;;1999.90;999.90;;;;;;;;;;5112246;27;20148;-95
2023/12/05 08:15:55;;;;;;;1999.90;999.90;;;;;;;;;;5108618;27;20446;-93
2023/12/05 08:18:24;;;;;;;1999.90;999.90;;;;;;;;;;5107521;27;20464;-92
2023/12/05 08:20:50;;;;;;;1999.90;999.90;;;;;;;;;;5128067;27;20054;-90
2023/12/05 08:23:18;;;;;;;1999.90;999.90;;;;;;;;;;5130545;27;20066;-92
2023/12/05 08:25:45;;;;;;;1999.90;999.90;;;;;;;;;;5127268;27;20031;-92
2023/12/05 08:28:13;;;;;;;1999.90;999.90;;;;;;;;;;5135037;27;20035;-92
2023/12/05 08:30:41;;;;;;;1999.90;999.90;;;;;;;;;;5131966;27;20047;-92
2023/12/05 08:33:08;;;;;;;1999.90;999.90;;;;;;;;;;5135844;27;20028;-92
2023/12/05 08:35:35;;;;;;;1999.90;999.90;;;;;;;;;;5110651;27;20082;-92
2023/12/05 08:38:02;;;;;;;1999.90;999.90;;;;;;;;;;5105976;27;20039;-93
2023/12/05 08:40:29;;;;;;;1999.90;999.90;;;;;;;;;;5110716;27;20059;-92
2023/12/05 08:42:55;;;;;;;1999.90;999.90;;;;;;;;;;5104749;27;20056;-91
2023/12/05 08:45:24;;;;;;;1999.90;999.90;;;;;;;;;;5108543;27;20053;-91
2023/12/05 08:47:53;;;;;;;1999.90;999.90;;;;;;;;;;5108367;27;20071;-92
2023/12/05 08:50:21;;;;;;;1999.90;999.90;;;;;;;;;;5105866;27;20149;-91
2023/12/05 08:52:47;;;;;;;1999.90;999.90;;;;;;;;;;5110532;27;20138;-91
2023/12/05 08:55:17;;;;;;;1999.90;999.90;;;;;;;;;;5110763;27;20059;-91
2023/12/05 08:57:47;;;;;;;1999.90;999.90;;;;;;;;;;5106102;27;20043;-91
2023/12/05 09:00:14;;;;;;;1999.90;999.90;;;;;;;;;;5102717;27;20062;-91
2023/12/05 09:05:24;;;;;;;1999.90;999.90;;;;;;;;;;5106448;27;20400;-90
2023/12/05 09:07:51;;;;;;;1999.90;999.90;;;;;;;;;;5108142;27;20101;-89
2023/12/05 09:10:17;;;;;;;1999.90;999.90;;;;;;;;;;5102977;27;20050;-90
2023/12/05 09:12:45;;;;;;;1999.90;999.90;;;;;;;;;;5108702;27;20499;-90
2023/12/05 09:15:11;;;;;;;1999.90;999.90;;;;;;;;;;5102693;28;20435;-91
2023/12/05 09:17:38;;;;;;;1999.90;999.90;;;;;;;;;;5109205;27;20055;-90
2023/12/05 09:20:09;;;;;;;1999.90;999.90;;;;;;;;;;5106135;27;20052;-90
2023/12/05 09:22:36;;;;;;;1999.90;999.90;;;;;;;;;;5103823;27;20110;-90
2023/12/05 09:25:03;;;;;;;1999.90;999.90;;;;;;;;;;5114654;27;20047;-91
2023/12/05 09:27:30;;;;;;;1999.90;999.90;;;;;;;;;;5100652;28;20048;-92
2023/12/05 09:29:57;;;;;;;1999.90;999.90;;;;;;;;;;5109911;27;20044;-91
2023/12/05 09:32:23;;;;;;;1999.90;999.90;;;;;;;;;;5107122;27;20139;-92
2023/12/05 09:34:50;;;;;;;1999.90;999.90;;;;;;;;;;5099854;27;20044;-91
2023/12/05 09:37:18;;;;;;;1999.90;999.90;;;;;;;;;;5104086;27;20052;-91
2023/12/05 09:39:44;;;;;;;1999.90;999.90;;;;;;;;;;5103781;27;20055;-92
2023/12/05 09:42:14;;;;;;;1999.90;999.90;;;;;;;;;;5108208;27;20055;-92
2023/12/05 09:44:45;;;;;;;1999.90;999.90;;;;;;;;;;5107272;27;20477;-92
2023/12/05 09:47:12;;;;;;;1999.90;999.90;;;;;;;;;;5109123;27;20381;-91
2023/12/05 09:49:40;;;;;;;1999.90;999.90;;;;;;;;;;5110627;27;20047;-92
2023/12/05 09:52:08;;;;;;;1999.90;999.90;;;;;;;;;;5108692;27;20408;-91
2023/12/05 09:54:38;;;;;;;1999.90;999.90;;;;;;;;;;5103200;27;20047;-92
2023/12/05 09:57:09;;;;;;;1999.90;999.90;;;;;;;;;;5111512;27;20081;-92
2023/12/05 09:59:37;;;;;;;1999.90;999.90;;;;;;;;;;5102782;27;20051;-91
2023/12/05 10:02:04;;;;;;;1999.90;999.90;;;;;;;;;;5105180;27;20404;-91
2023/12/05 10:04:35;;;;;;;1999.90;999.90;;;;;;;;;;5107458;27;20058;-91
2023/12/05 10:07:02;;;;;;;1999.90;999.90;;;;;;;;;;5109096;27;20047;-92
2023/12/05 10:09:30;;;;;;;1999.90;999.90;;;;;;;;;;5108679;27;20059;-91
2023/12/05 10:12:05;;;;;;;1999.90;999.90;;;;;;;;;;5105819;27;20052;-91
2023/12/05 10:14:31;;;;;;;1999.90;999.90;;;;;;;;;;5109083;27;20048;-92
2023/12/05 10:16:58;;;;;;;1999.90;999.90;;;;;;;;;;5127921;27;20049;-93
2023/12/05 10:19:25;;;;;;;1999.90;999.90;;;;;;;;;;5126726;27;20035;-94
2023/12/05 10:21:54;;;;;;;1999.90;999.90;;;;;;;;;;5123192;27;20339;-94
2023/12/05 10:24:21;;;;;;;1999.90;999.90;;;;;;;;;;5121114;27;20038;-94
2023/12/05 10:26:48;;;;;;;1999.90;999.90;;;;;;;;;;5126937;27;20099;-94
2023/12/05 10:32:36;;;;;;;1999.90;999.90;;;;;;;;;;5016199;28;20061;-90
2023/12/05 10:36:00;;;;;;;1999.90;999.90;;;;;;;;;;5037839;28;20488;-89
2023/12/05 10:53:25;;;;;;;1999.90;999.90;;;;;;;;;;4909533;29;20066;-88
2023/12/05 10:56:07;;;;;;;1999.90;999.90;;;;;;;;;;4930797;28;20057;-86
2023/12/05 10:58:34;;;;;;;1999.90;999.90;;;;;;;;;;4949083;28;20570;-89
2023/12/05 11:01:00;;;;;;;1999.90;999.90;;;;;;;;;;5021835;28;20503;-88
2023/12/05 11:03:27;;;;;;;1999.90;999.90;;;;;;;;;;5021427;28;20128;-86
2023/12/05 11:05:54;;;;;;;1999.90;999.90;;;;;;;;;;5018609;28;20069;-87
2023/12/05 11:08:21;;;;;;;1999.90;999.90;;;;;;;;;;5020525;28;20042;-86
2023/12/05 11:10:52;;;;;;;1999.90;999.90;;;;;;;;;;5018143;28;20053;-87
2023/12/05 11:13:20;;;;;;;1999.90;999.90;;;;;;;;;;5024512;28;20050;-87
2023/12/05 11:15:49;;;;;;;1999.90;999.90;;;;;;;;;;5027138;28;20046;-88
2023/12/05 11:18:25;;;;;;;1999.90;999.90;;;;;;;;;;5012927;28;20103;-87
2023/12/05 11:21:02;;;;;;;1999.90;999.90;;;;;;;;;;5007347;28;20099;-88
2023/12/05 11:23:52;;;;;;;1999.90;999.90;;;;;;;;;;5028744;28;20516;-89
2023/12/05 11:26:30;;;;;;;1999.90;999.90;;;;;;;;;;5025707;28;20057;-89
2023/12/05 11:29:07;;;;;;;1999.90;999.90;;;;;;;;;;5011355;28;20095;-89
2023/12/05 11:31:42;;;;;;;1999.90;999.90;;;;;;;;;;5025797;28;20112;-89
2023/12/05 11:34:29;;;;;;;1999.90;999.90;;;;;;;;;;5027363;28;20136;-89
2023/12/05 11:36:59;;;;;;;;;;;;;;;;;;5009786;28;20050;-90
2023/12/05 11:39:29;;;;;;;1999.90;999.90;;;;;;;;;;5027083;28;19921;-89
2023/12/05 11:42:11;;;;;;;1999.90;999.90;;;;;;;;;;5029786;28;20053;-89
2023/12/05 11:44:39;;;;;;;1999.90;999.90;;;;;;;;;;5008044;28;20050;-92
2023/12/05 11:47:11;;;;;;;1999.90;999.90;;;;;;;;;;5027196;28;20069;-93
2023/12/05 11:49:41;;;;;;;1999.90;999.90;;;;;;;;;;5030333;28;20049;-94
2023/12/05 11:52:11;;;;;;;1999.90;999.90;;;;;;;;;;5023640;28;20050;-92
2023/12/05 11:54:39;;;;;;;1999.90;999.90;;;;;;;;;;5010359;28;20485;-91
2023/12/05 11:57:23;;;;;;;1999.90;999.90;;;;;;;;;;5029628;28;20053;-91
2023/12/05 11:59:52;;;;;;;1999.90;999.90;;;;;;;;;;5023868;28;20392;-92
2023/12/05 12:02:38;;;;;;;1999.90;999.90;;;;;;;;;;5016162;28;20080;-94
2023/12/05 12:05:06;;;;;;;;;;;;;;;;;;5027918;28;20103;-83
2023/12/05 12:07:33;;;;;;;1999.90;999.90;;;;;;;;;;5020798;28;20375;-82
2023/12/05 12:10:00;;;;;;;1999.90;999.90;;;;;;;;;;5024183;28;20061;-83
2023/12/05 12:12:32;;;;;;;1999.90;999.90;;;;;;;;;;5003682;28;20088;-83
2023/12/05 12:15:00;;;;;;;1999.90;999.90;;;;;;;;;;5002903;28;20057;-83
2023/12/05 12:17:27;;;;;;;1999.90;999.90;;;;;;;;;;5019891;28;20413;-83
2023/12/05 12:19:54;;;;;;;1999.90;999.90;;;;;;;;;;5022946;28;20049;-84
2023/12/05 12:22:21;;;;;;;1999.90;999.90;;;;;;;;;;5021830;28;20056;-85
2023/12/05 12:24:50;;;;;;;1999.90;999.90;;;;;;;;;;5004660;28;20154;-85
2023/12/05 12:27:17;;;;;;;1999.90;999.90;;;;;;;;;;5024397;28;20046;-88
2023/12/05 12:29:57;;;;;;;1999.90;999.90;;;;;;;;;;5024269;28;20056;-90
2023/12/05 12:32:24;;;;;;;1999.90;999.90;;;;;;;;;;5028663;28;20061;-85
2023/12/05 12:34:51;;;;;;;1999.90;999.90;;;;;;;;;;5021663;28;20053;-87
2023/12/05 12:37:20;;;;;;;1999.90;999.90;;;;;;;;;;5025480;28;20053;-88
2023/12/05 12:39:47;;;;;;;1999.90;999.90;;;;;;;;;;5028799;28;20049;-84
2023/12/05 12:42:21;;;;;;;1999.90;999.90;;;;;;;;;;5025169;28;20052;-85
2023/12/05 12:44:48;;;;;;;1999.90;999.90;;;;;;;;;;5027155;28;20045;-86
2023/12/05 12:47:19;;;;;;;1999.90;999.90;;;;;;;;;;5024180;28;20050;-86
2023/12/05 12:49:51;;;;;;;1999.90;999.90;;;;;;;;;;5024078;28;20054;-85
2023/12/05 12:52:18;;;;;;;1999.90;999.90;;;;;;;;;;4987560;28;20053;-86
2023/12/05 12:54:45;;;;;;;1999.90;999.90;;;;;;;;;;5008316;28;20041;-85
2023/12/05 12:57:12;;;;;;;1999.90;999.90;;;;;;;;;;5020613;28;20054;-85
2023/12/05 12:59:41;;;;;;;1999.90;999.90;;;;;;;;;;5019815;28;20088;-85
2023/12/05 13:02:08;;;;;;;1999.90;999.90;;;;;;;;;;5023288;28;20085;-85
2023/12/05 13:04:38;;;;;;;1999.90;999.90;;;;;;;;;;5012042;28;20136;-85
2023/12/05 13:07:04;;;;;;;1999.90;999.90;;;;;;;;;;5023030;28;20137;-85
2023/12/05 13:09:41;;;;;;;1999.90;999.90;;;;;;;;;;5024067;28;20050;-85
2023/12/05 13:12:09;;;;;;;1999.90;999.90;;;;;;;;;;5005767;28;20089;-86
2023/12/05 13:14:36;;;;;;;1999.90;999.90;;;;;;;;;;5009157;28;20057;-84
2023/12/05 13:17:09;;;;;;;1999.90;999.90;;;;;;;;;;5021359;28;20049;-84
2023/12/05 13:19:38;;;;;;;1999.90;999.90;;;;;;;;;;5003169;28;20515;-84
2023/12/05 13:22:05;;;;;;;1999.90;999.90;;;;;;;;;;5022214;28;20049;-85
2023/12/05 13:24:42;;;;;;;1999.90;999.90;;;;;;;;;;5018431;28;20053;-84
2023/12/05 13:27:09;;;;;;;1999.90;999.90;;;;;;;;;;5019290;28;20175;-83
2023/12/05 13:29:36;;;;;;;1999.90;999.90;;;;;;;;;;5001061;28;20459;-84
2023/12/05 13:32:06;;;;;;;1999.90;999.90;;;;;;;;;;5006578;28;20099;-83
2023/12/05 13:34:33;;;;;;;1999.90;999.90;;;;;;;;;;5015691;28;20057;-83
2023/12/05 13:37:04;;;;;;;1999.90;999.90;;;;;;;;;;5020536;28;20522;-84
2023/12/05 13:39:30;;;;;;;1999.90;999.90;;;;;;;;;;5024427;28;20054;-83
2023/12/05 13:41:57;;;;;;;1999.90;999.90;;;;;;;;;;5000060;28;20054;-83
2023/12/05 13:44:24;;;;;;;1999.90;999.90;;;;;;;;;;5020572;28;20141;-84
2023/12/05 13:46:51;;;;;;;1999.90;999.90;;;;;;;;;;5020107;28;20484;-84
2023/12/05 13:49:19;;;;;;;1999.90;999.90;;;;;;;;;;4995419;28;20049;-84
2023/12/05 13:51:45;;;;;;;1999.90;999.90;;;;;;;;;;5020435;28;20053;-84
2023/12/05 13:54:14;;;;;;;1999.90;999.90;;;;;;;;;;5023009;28;20087;-83
2023/12/05 13:56:41;;;;;;;1999.90;999.90;;;;;;;;;;5018307;28;20057;-83
2023/12/05 13:59:08;;;;;;;1999.90;999.90;;;;;;;;;;5002815;28;20050;-83
2023/12/05 14:01:34;;;;;;;1999.90;999.90;;;;;;;;;;5023286;28;20057;-85
2023/12/05 14:04:02;;;;;;;1999.90;999.90;;;;;;;;;;5023206;28;20133;-87
2023/12/05 14:06:31;;;;;;;1999.90;999.90;;;;;;;;;;5002834;28;20046;-86
2023/12/05 14:08:58;;;;;;;1999.90;999.90;;;;;;;;;;5033244;28;20123;-84
2023/12/05 14:11:26;;;;;;;1999.90;999.90;;;;;;;;;;5036201;28;20054;-86